Time;durP1;ratioP1;P1;durP2;ratioP2;P2;SDS_P1;SDS_P2;PMS_P1;PMS_P2;Temp;Humidity;BMP_temperature;BMP_pressure;BME280_temperature;BME280_humidity;BME280_pressure;Samples;Min_cycle;Max_cycle;Signal;HPM_P1;HPM_P2
2021/01/10 00:00:33;;;;;;;85.30;32.00;;;;;;;;;;5012101;28;20025;-66
2021/01/10 00:02:58;;;;;;;84.78;31.77;;;;;;;;;;5013923;28;20091;-65
2021/01/10 00:05:30;;;;;;;91.82;31.15;;;;;;;;;;5017359;28;20033;-66
2021/01/10 00:07:59;;;;;;;84.03;31.25;;;;;;;;;;5012976;28;20018;-65
2021/01/10 00:10:24;;;;;;;100.97;33.17;;;;;;;;;;5011260;28;20566;-65
2021/01/10 00:12:50;;;;;;;78.15;29.60;;;;;;;;;;5047427;22;20136;-69
2021/01/10 00:15:16;;;;;;;82.18;31.52;;;;;;;;;;5053429;28;20017;-69
2021/01/10 00:17:43;;;;;;;91.93;33.65;;;;;;;;;;5050679;28;20032;-69
2021/01/10 00:20:09;;;;;;;93.95;32.88;;;;;;;;;;5059529;28;20380;-69
2021/01/10 00:22:35;;;;;;;94.47;33.20;;;;;;;;;;5051178;28;20024;-69
2021/01/10 00:25:00;;;;;;;91.80;33.55;;;;;;;;;;5053224;28;20021;-69
2021/01/10 00:27:26;;;;;;;93.47;34.78;;;;;;;;;;5056040;28;20028;-69
2021/01/10 00:29:51;;;;;;;89.22;32.30;;;;;;;;;;5069396;28;20032;-69
2021/01/10 00:32:17;;;;;;;87.25;33.10;;;;;;;;;;5054993;28;20021;-68
2021/01/10 00:34:43;;;;;;;90.60;33.55;;;;;;;;;;5053620;28;20023;-68
2021/01/10 00:37:09;;;;;;;101.05;36.35;;;;;;;;;;5064489;28;20025;-69
2021/01/10 00:39:34;;;;;;;98.20;36.28;;;;;;;;;;5050952;28;20036;-68
2021/01/10 00:42:03;;;;;;;102.00;34.03;;;;;;;;;;5056243;28;20381;-69
2021/01/10 00:44:28;;;;;;;94.07;34.10;;;;;;;;;;5057518;28;20029;-68
2021/01/10 00:46:53;;;;;;;101.90;36.87;;;;;;;;;;5051482;28;20086;-68
2021/01/10 00:49:18;;;;;;;125.93;38.58;;;;;;;;;;5057138;28;20763;-68
2021/01/10 00:51:43;;;;;;;105.72;36.45;;;;;;;;;;5057482;28;20072;-68
2021/01/10 00:54:08;;;;;;;104.73;35.97;;;;;;;;;;5050673;28;20024;-68
2021/01/10 00:56:33;;;;;;;95.30;34.83;;;;;;;;;;5050889;28;20276;-68
2021/01/10 00:58:59;;;;;;;100.50;33.30;;;;;;;;;;5052048;28;20047;-68
2021/01/10 01:01:24;;;;;;;105.17;35.40;;;;;;;;;;5056533;28;20021;-68
2021/01/10 01:03:49;;;;;;;107.65;35.03;;;;;;;;;;5052308;28;20271;-68
2021/01/10 01:06:14;;;;;;;107.38;34.95;;;;;;;;;;5059552;28;20020;-68
2021/01/10 01:08:41;;;;;;;103.00;33.88;;;;;;;;;;5061789;28;20024;-68
2021/01/10 01:11:06;;;;;;;123.90;36.63;;;;;;;;;;5055680;28;20043;-68
2021/01/10 01:13:32;;;;;;;117.38;37.15;;;;;;;;;;5057552;28;20029;-68
2021/01/10 01:15:57;;;;;;;114.18;38.50;;;;;;;;;;5054145;28;20477;-68
2021/01/10 01:18:23;;;;;;;98.68;35.67;;;;;;;;;;5051739;28;20033;-68
2021/01/10 01:20:50;;;;;;;103.05;35.40;;;;;;;;;;5056509;28;20078;-68
2021/01/10 01:23:15;;;;;;;108.65;37.53;;;;;;;;;;5054998;28;20025;-68
2021/01/10 01:25:40;;;;;;;116.28;39.03;;;;;;;;;;5056980;28;20025;-68
2021/01/10 01:28:05;;;;;;;114.45;37.65;;;;;;;;;;5053510;28;20020;-68
2021/01/10 01:30:31;;;;;;;127.35;38.92;;;;;;;;;;5058902;28;20561;-68
2021/01/10 01:32:56;;;;;;;115.95;38.90;;;;;;;;;;5062015;28;20512;-68
2021/01/10 01:35:21;;;;;;;112.90;41.58;;;;;;;;;;5049868;28;20416;-68
2021/01/10 01:37:46;;;;;;;115.03;39.40;;;;;;;;;;5065173;28;20027;-67
2021/01/10 01:40:12;;;;;;;111.60;38.15;;;;;;;;;;5050376;28;20099;-68
2021/01/10 01:42:37;;;;;;;115.65;39.78;;;;;;;;;;5060973;28;20240;-68
2021/01/10 01:45:03;;;;;;;115.75;37.50;;;;;;;;;;5055296;28;20397;-68
2021/01/10 01:47:28;;;;;;;113.70;38.78;;;;;;;;;;5060040;28;20385;-68
2021/01/10 01:49:54;;;;;;;122.38;39.72;;;;;;;;;;5065430;28;20026;-67
2021/01/10 01:52:19;;;;;;;112.38;38.08;;;;;;;;;;5059342;28;20035;-67
2021/01/10 01:54:44;;;;;;;108.78;39.20;;;;;;;;;;5049853;28;20024;-67
2021/01/10 01:57:10;;;;;;;105.03;36.75;;;;;;;;;;5063946;28;20392;-67
2021/01/10 01:59:35;;;;;;;98.07;35.53;;;;;;;;;;5062814;28;20017;-67
2021/01/10 02:02:01;;;;;;;102.93;37.15;;;;;;;;;;5053589;28;20021;-67
2021/01/10 02:04:31;;;;;;;108.80;38.38;;;;;;;;;;5055157;28;20029;-67
2021/01/10 02:06:59;;;;;;;102.60;37.83;;;;;;;;;;5056222;28;20029;-67
2021/01/10 02:09:26;;;;;;;104.03;36.50;;;;;;;;;;5054206;28;20040;-67
2021/01/10 02:11:53;;;;;;;112.93;36.47;;;;;;;;;;5055214;28;20512;-67
2021/01/10 02:14:22;;;;;;;108.68;39.20;;;;;;;;;;5064627;28;20056;-67
2021/01/10 02:16:48;;;;;;;124.93;39.95;;;;;;;;;;5059494;28;20020;-67
2021/01/10 02:19:23;;;;;;;116.88;40.08;;;;;;;;;;5052416;28;20032;-67
2021/01/10 02:21:50;;;;;;;135.73;42.65;;;;;;;;;;5036032;28;20351;-67
2021/01/10 02:24:15;;;;;;;143.85;47.20;;;;;;;;;;5045576;28;20365;-68
2021/01/10 02:26:41;;;;;;;124.35;40.63;;;;;;;;;;5048665;28;20432;-68
2021/01/10 02:29:06;;;;;;;116.05;39.50;;;;;;;;;;5051613;28;20477;-68
2021/01/10 02:31:34;;;;;;;124.30;40.38;;;;;;;;;;5051045;28;20020;-67
2021/01/10 02:34:00;;;;;;;128.05;40.55;;;;;;;;;;5054369;28;20060;-68
2021/01/10 02:36:31;;;;;;;132.10;42.47;;;;;;;;;;5052680;28;20477;-67
2021/01/10 02:38:59;;;;;;;126.10;40.05;;;;;;;;;;5054772;28;20029;-68
2021/01/10 02:41:43;;;;;;;124.60;41.22;;;;;;;;;;5049386;28;20025;-68
2021/01/10 02:44:27;;;;;;;130.88;41.78;;;;;;;;;;5068542;28;20024;-67
2021/01/10 02:46:53;;;;;;;126.07;39.42;;;;;;;;;;5057520;28;20481;-68
2021/01/10 02:49:19;;;;;;;134.00;43.10;;;;;;;;;;5064673;28;20040;-68
2021/01/10 02:51:44;;;;;;;130.43;41.55;;;;;;;;;;5053403;28;20024;-68
2021/01/10 02:54:13;;;;;;;132.57;42.13;;;;;;;;;;5053639;28;20036;-68
2021/01/10 02:56:58;;;;;;;142.23;44.50;;;;;;;;;;5054492;28;20062;-68
2021/01/10 02:59:24;;;;;;;127.20;39.47;;;;;;;;;;5065301;28;20492;-68
2021/01/10 03:01:52;;;;;;;127.97;42.10;;;;;;;;;;5058226;28;20017;-68
2021/01/10 03:04:18;;;;;;;125.15;40.60;;;;;;;;;;5056928;28;20056;-68
2021/01/10 03:06:43;;;;;;;126.75;40.88;;;;;;;;;;5054162;28;20480;-68
2021/01/10 03:09:10;;;;;;;121.28;39.78;;;;;;;;;;5064566;28;20031;-68
2021/01/10 03:11:36;;;;;;;119.25;38.83;;;;;;;;;;5052761;28;20035;-68
2021/01/10 03:14:01;;;;;;;114.63;36.60;;;;;;;;;;5064541;28;20029;-68
2021/01/10 03:16:27;;;;;;;103.05;35.63;;;;;;;;;;5054600;28;20036;-68
2021/01/10 03:18:52;;;;;;;125.22;41.03;;;;;;;;;;5052890;28;20107;-68
2021/01/10 03:21:18;;;;;;;130.07;38.63;;;;;;;;;;5057315;28;20017;-68
2021/01/10 03:23:43;;;;;;;117.10;36.53;;;;;;;;;;5055229;28;20032;-68
2021/01/10 03:26:09;;;;;;;115.97;37.55;;;;;;;;;;5052957;28;20107;-68
2021/01/10 03:28:34;;;;;;;116.50;39.25;;;;;;;;;;5067927;28;20058;-68
2021/01/10 03:30:59;;;;;;;115.03;37.53;;;;;;;;;;5058770;28;20024;-68
2021/01/10 03:33:24;;;;;;;126.90;40.72;;;;;;;;;;5050993;28;20020;-68
2021/01/10 03:35:49;;;;;;;144.27;43.42;;;;;;;;;;5061312;28;20020;-68
2021/01/10 03:38:14;;;;;;;138.65;42.55;;;;;;;;;;5066803;28;20493;-68
2021/01/10 03:40:40;;;;;;;130.10;38.70;;;;;;;;;;5065437;28;20043;-68
2021/01/10 03:43:05;;;;;;;119.18;39.03;;;;;;;;;;5054599;28;20013;-68
2021/01/10 03:45:30;;;;;;;133.00;38.97;;;;;;;;;;5056171;28;20029;-68
2021/01/10 03:47:56;;;;;;;126.23;37.47;;;;;;;;;;5051737;28;20303;-68
2021/01/10 03:50:21;;;;;;;123.45;37.10;;;;;;;;;;5053857;28;20341;-68
2021/01/10 03:52:47;;;;;;;124.82;38.70;;;;;;;;;;5058313;28;20465;-68
2021/01/10 03:55:12;;;;;;;161.65;43.47;;;;;;;;;;5058963;28;20052;-68
2021/01/10 03:57:38;;;;;;;133.10;39.30;;;;;;;;;;5060888;28;20031;-68
2021/01/10 04:00:04;;;;;;;154.65;45.80;;;;;;;;;;5058982;28;20032;-68
2021/01/10 04:02:30;;;;;;;135.02;40.17;;;;;;;;;;5056495;28;20025;-68
2021/01/10 04:04:55;;;;;;;155.75;42.65;;;;;;;;;;5061329;28;20035;-68
2021/01/10 04:07:20;;;;;;;138.05;38.17;;;;;;;;;;5069484;28;20024;-67
2021/01/10 04:09:45;;;;;;;155.70;40.78;;;;;;;;;;5063916;28;20423;-67
2021/01/10 04:12:11;;;;;;;157.65;42.22;;;;;;;;;;5054793;28;20024;-68
2021/01/10 04:14:36;;;;;;;151.52;39.38;;;;;;;;;;5055012;28;20029;-67
2021/01/10 04:17:01;;;;;;;140.38;39.03;;;;;;;;;;5065705;28;20024;-67
2021/01/10 04:19:26;;;;;;;140.32;37.83;;;;;;;;;;5062696;28;20052;-68
2021/01/10 04:21:51;;;;;;;132.35;37.25;;;;;;;;;;5051859;28;20017;-67
2021/01/10 04:24:16;;;;;;;148.02;37.58;;;;;;;;;;5050358;28;20122;-68
2021/01/10 04:26:47;;;;;;;146.18;39.20;;;;;;;;;;5061900;28;20025;-68
2021/01/10 04:29:13;;;;;;;114.00;35.40;;;;;;;;;;5051104;28;20045;-67
2021/01/10 04:31:38;;;;;;;131.90;35.22;;;;;;;;;;5055641;28;20025;-67
2021/01/10 04:34:03;;;;;;;111.57;32.60;;;;;;;;;;5051392;28;20083;-67
2021/01/10 04:36:29;;;;;;;118.70;33.72;;;;;;;;;;5050876;28;20404;-67
2021/01/10 04:38:56;;;;;;;116.35;33.00;;;;;;;;;;5055917;28;20031;-67
2021/01/10 04:41:22;;;;;;;108.47;35.83;;;;;;;;;;5064110;28;20093;-67
2021/01/10 04:43:47;;;;;;;98.85;32.95;;;;;;;;;;5051245;28;20456;-67
2021/01/10 04:46:13;;;;;;;115.22;33.40;;;;;;;;;;5061817;28;20048;-67
2021/01/10 04:48:38;;;;;;;111.75;34.58;;;;;;;;;;5053951;28;20154;-67
2021/01/10 04:51:04;;;;;;;113.13;35.33;;;;;;;;;;5053119;28;20127;-68
2021/01/10 04:53:30;;;;;;;113.20;35.47;;;;;;;;;;5056930;28;20017;-67
2021/01/10 04:55:57;;;;;;;128.20;35.58;;;;;;;;;;5063000;28;20021;-67
2021/01/10 04:58:26;;;;;;;114.70;35.58;;;;;;;;;;5062557;28;20613;-67
2021/01/10 05:00:51;;;;;;;134.10;36.38;;;;;;;;;;5057784;28;20126;-67
2021/01/10 05:03:18;;;;;;;139.45;37.75;;;;;;;;;;5059650;28;20035;-67
2021/01/10 05:05:43;;;;;;;131.45;36.35;;;;;;;;;;5066529;28;20384;-67
2021/01/10 05:08:09;;;;;;;130.70;36.55;;;;;;;;;;5060985;28;20039;-67
2021/01/10 05:10:34;;;;;;;134.90;36.28;;;;;;;;;;5058363;28;20024;-67
2021/01/10 05:12:59;;;;;;;139.20;37.67;;;;;;;;;;5052850;28;20095;-67
2021/01/10 05:15:25;;;;;;;125.47;36.50;;;;;;;;;;5050131;28;20017;-67
2021/01/10 05:17:54;;;;;;;138.63;39.72;;;;;;;;;;5056430;28;20034;-67
2021/01/10 05:20:19;;;;;;;138.73;37.60;;;;;;;;;;5056062;28;20059;-67
2021/01/10 05:22:47;;;;;;;137.13;37.78;;;;;;;;;;5057142;28;20052;-67
2021/01/10 05:25:13;;;;;;;134.52;37.13;;;;;;;;;;5057542;28;20103;-67
2021/01/10 05:27:38;;;;;;;132.05;39.20;;;;;;;;;;5049351;28;20103;-67
2021/01/10 05:30:04;;;;;;;135.27;38.50;;;;;;;;;;5044034;28;20474;-67
2021/01/10 05:32:30;;;;;;;146.68;37.17;;;;;;;;;;5045004;28;20437;-67
2021/01/10 05:34:59;;;;;;;124.72;38.00;;;;;;;;;;5059629;28;20040;-67
2021/01/10 05:37:25;;;;;;;139.32;37.42;;;;;;;;;;5059527;28;20020;-67
2021/01/10 05:39:50;;;;;;;115.72;35.28;;;;;;;;;;5057712;28;20051;-67
2021/01/10 05:42:15;;;;;;;120.43;36.15;;;;;;;;;;5050929;28;20056;-67
2021/01/10 05:44:40;;;;;;;120.38;35.15;;;;;;;;;;5048351;28;20037;-67
2021/01/10 05:47:06;;;;;;;127.87;36.20;;;;;;;;;;5049640;28;20126;-67
2021/01/10 05:49:32;;;;;;;132.57;36.75;;;;;;;;;;5059404;28;20773;-67
2021/01/10 05:52:06;;;;;;;130.23;36.03;;;;;;;;;;5049179;28;20032;-67
2021/01/10 05:54:34;;;;;;;119.57;35.20;;;;;;;;;;5050650;28;20032;-67
2021/01/10 05:57:00;;;;;;;128.68;35.55;;;;;;;;;;5051389;28;20024;-67
2021/01/10 05:59:27;;;;;;;136.30;37.00;;;;;;;;;;5052119;28;20021;-67
2021/01/10 06:01:53;;;;;;;123.60;36.53;;;;;;;;;;5055848;28;20506;-67
2021/01/10 06:04:21;;;;;;;123.50;35.85;;;;;;;;;;5061972;28;20086;-67
2021/01/10 06:06:46;;;;;;;127.90;36.08;;;;;;;;;;5060633;28;20078;-67
2021/01/10 06:09:11;;;;;;;165.98;47.17;;;;;;;;;;5073504;28;20040;-67
2021/01/10 06:11:37;;;;;;;154.63;41.15;;;;;;;;;;5061116;28;20127;-67
2021/01/10 06:14:04;;;;;;;165.98;44.75;;;;;;;;;;5075986;22;20048;-65
2021/01/10 06:16:33;;;;;;;152.13;46.42;;;;;;;;;;5056188;28;20538;-65
2021/01/10 06:19:04;;;;;;;170.43;47.33;;;;;;;;;;5056760;28;20024;-65
2021/01/10 06:21:30;;;;;;;177.63;49.00;;;;;;;;;;5059348;28;20021;-65
2021/01/10 06:23:59;;;;;;;182.35;49.03;;;;;;;;;;5053332;28;20035;-65
2021/01/10 06:26:25;;;;;;;182.95;46.88;;;;;;;;;;5053282;28;20079;-65
2021/01/10 06:28:52;;;;;;;188.80;51.20;;;;;;;;;;5053447;28;20017;-65
2021/01/10 06:31:22;;;;;;;229.10;58.83;;;;;;;;;;5052376;28;20032;-65
2021/01/10 06:33:49;;;;;;;213.85;53.40;;;;;;;;;;5052713;28;20051;-65
2021/01/10 06:36:18;;;;;;;187.05;49.67;;;;;;;;;;5053441;28;20025;-65
2021/01/10 06:38:43;;;;;;;185.65;50.55;;;;;;;;;;5053029;28;20372;-65
2021/01/10 06:41:08;;;;;;;176.63;48.13;;;;;;;;;;5052544;28;20013;-65
2021/01/10 06:43:34;;;;;;;181.13;48.28;;;;;;;;;;5052749;28;20028;-65
2021/01/10 06:46:00;;;;;;;162.60;45.33;;;;;;;;;;5052345;28;20801;-65
2021/01/10 06:48:25;;;;;;;185.70;48.22;;;;;;;;;;5052770;28;20565;-65
2021/01/10 06:50:51;;;;;;;185.07;49.13;;;;;;;;;;5052418;28;20025;-65
2021/01/10 06:53:16;;;;;;;214.52;51.58;;;;;;;;;;5052108;28;20029;-65
2021/01/10 06:55:44;;;;;;;180.85;48.63;;;;;;;;;;5053108;28;20029;-65
2021/01/10 06:58:09;;;;;;;178.00;46.75;;;;;;;;;;5053073;28;20017;-65
2021/01/10 07:00:53;;;;;;;207.27;51.65;;;;;;;;;;5052184;28;20044;-65
2021/01/10 07:03:18;;;;;;;200.32;51.60;;;;;;;;;;5052788;28;20413;-65
2021/01/10 07:05:55;;;;;;;207.32;53.67;;;;;;;;;;5052603;28;20028;-64
2021/01/10 07:08:30;;;;;;;159.02;41.75;;;;;;;;;;5052261;28;20017;-65
2021/01/10 07:10:56;;;;;;;172.82;46.30;;;;;;;;;;5050682;28;20028;-65
2021/01/10 07:13:24;;;;;;;143.20;36.78;;;;;;;;;;5050600;28;20025;-65
2021/01/10 07:16:09;;;;;;;109.65;28.88;;;;;;;;;;5052654;28;20031;-65
2021/01/10 07:18:47;;;;;;;121.07;32.95;;;;;;;;;;5052351;28;20374;-65
2021/01/10 07:21:27;;;;;;;52.75;19.05;;;;;;;;;;5050840;28;20017;-64
2021/01/10 07:23:53;;;;;;;159.68;40.88;;;;;;;;;;5050703;28;20044;-65
2021/01/10 07:26:38;;;;;;;167.27;42.75;;;;;;;;;;5052250;28;20028;-65
2021/01/10 07:29:03;;;;;;;131.10;31.60;;;;;;;;;;5052018;28;20028;-64
2021/01/10 07:31:28;;;;;;;166.13;37.95;;;;;;;;;;5051599;28;20078;-65
2021/01/10 07:34:09;;;;;;;205.00;45.67;;;;;;;;;;5051397;28;20513;-65
2021/01/10 07:36:49;;;;;;;178.32;43.30;;;;;;;;;;5051332;28;20030;-65
2021/01/10 07:39:14;;;;;;;168.43;35.95;;;;;;;;;;5052047;28;20024;-65
2021/01/10 07:41:40;;;;;;;155.70;40.45;;;;;;;;;;5051895;28;20029;-65
2021/01/10 07:44:05;;;;;;;150.13;38.03;;;;;;;;;;5052034;28;20032;-65
2021/01/10 07:47:02;;;;;;;210.48;49.30;;;;;;;;;;5051632;28;20048;-65
2021/01/10 07:49:29;;;;;;;181.32;48.58;;;;;;;;;;5025597;28;20386;-65
2021/01/10 07:51:54;;;;;;;214.48;48.65;;;;;;;;;;5050194;28;20021;-65
2021/01/10 07:54:38;;;;;;;171.07;43.55;;;;;;;;;;5051901;28;20032;-65
2021/01/10 07:57:22;;;;;;;108.53;28.73;;;;;;;;;;5049720;28;20021;-65
2021/01/10 08:00:03;;;;;;;226.68;49.00;;;;;;;;;;5051169;28;20032;-65
2021/01/10 08:02:47;;;;;;;182.68;43.03;;;;;;;;;;5051146;28;20029;-65
2021/01/10 08:05:13;;;;;;;205.18;44.28;;;;;;;;;;5049864;28;20025;-65
2021/01/10 08:07:44;;;;;;;207.88;46.55;;;;;;;;;;5051849;28;20417;-65
2021/01/10 08:10:09;;;;;;;152.43;34.67;;;;;;;;;;5051136;28;20062;-65
2021/01/10 08:12:36;;;;;;;151.90;31.80;;;;;;;;;;5050893;28;20017;-65
2021/01/10 08:15:02;;;;;;;192.45;48.60;;;;;;;;;;5050489;28;20025;-65
2021/01/10 08:17:28;;;;;;;210.35;51.22;;;;;;;;;;5050535;28;20021;-65
2021/01/10 08:19:53;;;;;;;233.60;50.20;;;;;;;;;;5051169;28;20025;-65
2021/01/10 08:22:18;;;;;;;218.18;50.92;;;;;;;;;;5050424;28;20029;-65
2021/01/10 08:24:44;;;;;;;233.77;51.13;;;;;;;;;;5049147;28;20358;-65
2021/01/10 08:27:09;;;;;;;195.93;42.53;;;;;;;;;;5033392;28;20037;-65
2021/01/10 08:29:34;;;;;;;193.90;44.80;;;;;;;;;;5050438;28;20263;-65
2021/01/10 08:32:00;;;;;;;187.05;44.67;;;;;;;;;;5049615;28;20029;-65
2021/01/10 08:34:25;;;;;;;174.93;43.85;;;;;;;;;;5050697;28;20028;-65
2021/01/10 08:36:50;;;;;;;201.38;44.35;;;;;;;;;;5050477;28;20020;-64
2021/01/10 08:39:18;;;;;;;204.45;48.22;;;;;;;;;;5049076;28;20412;-65
2021/01/10 08:41:47;;;;;;;221.55;48.60;;;;;;;;;;5043762;28;20025;-65
2021/01/10 08:44:14;;;;;;;195.02;47.83;;;;;;;;;;5043598;28;20516;-65
2021/01/10 08:46:40;;;;;;;205.32;46.55;;;;;;;;;;5049885;28;20032;-65
2021/01/10 08:49:05;;;;;;;192.00;44.58;;;;;;;;;;5046203;28;20056;-65
2021/01/10 08:51:34;;;;;;;188.48;47.78;;;;;;;;;;5048131;28;20025;-65
2021/01/10 08:54:19;;;;;;;182.68;44.28;;;;;;;;;;5043074;28;20079;-65
2021/01/10 08:56:49;;;;;;;194.13;45.08;;;;;;;;;;5050514;28;20036;-64
2021/01/10 08:59:14;;;;;;;119.88;34.42;;;;;;;;;;5045007;28;20028;-65
2021/01/10 09:01:39;;;;;;;157.40;41.08;;;;;;;;;;5047844;28;20029;-65
2021/01/10 09:04:05;;;;;;;181.95;46.30;;;;;;;;;;5050348;28;20599;-65
2021/01/10 09:06:33;;;;;;;175.18;44.22;;;;;;;;;;5050276;28;20107;-65
2021/01/10 09:09:00;;;;;;;153.73;37.60;;;;;;;;;;5049695;28;20029;-65
2021/01/10 09:11:28;;;;;;;151.38;39.97;;;;;;;;;;5050216;28;20039;-65
2021/01/10 09:13:56;;;;;;;168.15;42.45;;;;;;;;;;5048980;28;20032;-64
2021/01/10 09:16:23;;;;;;;133.95;37.58;;;;;;;;;;5048738;28;20032;-65
2021/01/10 09:18:51;;;;;;;116.72;31.42;;;;;;;;;;5048559;28;20366;-65
2021/01/10 09:21:18;;;;;;;120.50;36.55;;;;;;;;;;5047433;28;20017;-65
2021/01/10 09:23:47;;;;;;;145.23;40.05;;;;;;;;;;5047685;28;20406;-65
2021/01/10 09:26:42;;;;;;;135.18;37.95;;;;;;;;;;5041691;28;20100;-65
2021/01/10 09:29:16;;;;;;;124.43;36.92;;;;;;;;;;5016289;28;20037;-65
2021/01/10 09:31:43;;;;;;;139.23;37.88;;;;;;;;;;5049387;28;20021;-65
2021/01/10 09:34:08;;;;;;;152.88;42.55;;;;;;;;;;5045985;28;20131;-65
2021/01/10 09:36:34;;;;;;;124.63;37.63;;;;;;;;;;5048740;28;20533;-65
2021/01/10 09:38:59;;;;;;;106.82;29.13;;;;;;;;;;5048497;28;20556;-65
2021/01/10 09:41:24;;;;;;;113.38;32.53;;;;;;;;;;5047915;28;20036;-65
2021/01/10 09:43:54;;;;;;;103.07;30.27;;;;;;;;;;5047781;28;20604;-65
2021/01/10 09:46:28;;;;;;;83.45;22.58;;;;;;;;;;5048869;28;20029;-65
2021/01/10 09:48:55;;;;;;;109.10;31.88;;;;;;;;;;5049077;28;20025;-65
2021/01/10 09:51:21;;;;;;;115.38;31.45;;;;;;;;;;5048725;28;20043;-65
2021/01/10 09:53:49;;;;;;;125.82;36.30;;;;;;;;;;5048931;28;20025;-65
2021/01/10 09:56:34;;;;;;;156.43;43.15;;;;;;;;;;5049024;28;20028;-65
2021/01/10 09:58:59;;;;;;;118.80;35.85;;;;;;;;;;5035541;28;20366;-65
2021/01/10 10:01:34;;;;;;;55.53;16.63;;;;;;;;;;5048556;28;20024;-65
2021/01/10 10:03:59;;;;;;;114.30;31.50;;;;;;;;;;5048910;28;20271;-65
2021/01/10 10:06:24;;;;;;;131.97;37.13;;;;;;;;;;5049365;28;20495;-65
2021/01/10 10:08:53;;;;;;;123.18;30.65;;;;;;;;;;5048278;28;20260;-64
2021/01/10 10:11:18;;;;;;;126.93;37.72;;;;;;;;;;5048126;28;20021;-64
2021/01/10 10:13:43;;;;;;;102.45;28.77;;;;;;;;;;5047836;28;20036;-65
2021/01/10 10:16:15;;;;;;;99.82;26.73;;;;;;;;;;5049075;28;20465;-65
2021/01/10 10:18:42;;;;;;;72.53;21.33;;;;;;;;;;5047235;28;20024;-65
2021/01/10 10:21:07;;;;;;;114.32;32.70;;;;;;;;;;5045866;28;20075;-65
2021/01/10 10:23:32;;;;;;;131.77;34.78;;;;;;;;;;5046108;28;20036;-65
2021/01/10 10:25:57;;;;;;;126.32;39.60;;;;;;;;;;5046215;28;20512;-65
2021/01/10 10:28:22;;;;;;;128.00;33.60;;;;;;;;;;5047203;28;20035;-65
2021/01/10 10:30:47;;;;;;;134.50;38.35;;;;;;;;;;5047003;28;20389;-65
2021/01/10 10:33:13;;;;;;;135.30;37.00;;;;;;;;;;5045783;28;20112;-64
2021/01/10 10:35:38;;;;;;;111.93;32.00;;;;;;;;;;5047028;28;20027;-65
2021/01/10 10:38:04;;;;;;;146.80;39.03;;;;;;;;;;5045704;28;20025;-65
2021/01/10 10:40:29;;;;;;;143.10;39.35;;;;;;;;;;5046667;28;20094;-65
2021/01/10 10:42:54;;;;;;;109.85;31.70;;;;;;;;;;5042490;28;20025;-65
2021/01/10 10:45:19;;;;;;;75.88;19.90;;;;;;;;;;5044410;28;20527;-65
2021/01/10 10:47:45;;;;;;;53.80;21.73;;;;;;;;;;5043650;28;20029;-65
2021/01/10 10:50:10;;;;;;;97.90;28.70;;;;;;;;;;5046377;28;20040;-65
2021/01/10 10:52:35;;;;;;;129.07;36.83;;;;;;;;;;5042103;28;20028;-65
2021/01/10 10:55:01;;;;;;;133.75;38.95;;;;;;;;;;5045898;28;20139;-65
2021/01/10 10:57:26;;;;;;;120.13;36.75;;;;;;;;;;5050426;28;20070;-64
2021/01/10 10:59:51;;;;;;;113.53;31.52;;;;;;;;;;5048471;28;20150;-65
2021/01/10 11:02:17;;;;;;;105.13;34.28;;;;;;;;;;5043671;28;20028;-65
2021/01/10 11:04:44;;;;;;;62.38;21.48;;;;;;;;;;5044511;28;20342;-65
2021/01/10 11:07:10;;;;;;;106.72;34.88;;;;;;;;;;5047463;28;20017;-65
2021/01/10 11:09:35;;;;;;;106.68;30.83;;;;;;;;;;5049512;28;20040;-65
2021/01/10 11:12:00;;;;;;;114.85;37.90;;;;;;;;;;5045125;28;20021;-64
2021/01/10 11:14:26;;;;;;;95.50;29.90;;;;;;;;;;5046216;28;20051;-64
2021/01/10 11:16:52;;;;;;;108.18;35.30;;;;;;;;;;5050598;28;20051;-65
2021/01/10 11:19:18;;;;;;;124.03;38.65;;;;;;;;;;5052358;28;20028;-65
2021/01/10 11:21:44;;;;;;;113.03;37.88;;;;;;;;;;5048837;28;20021;-64
2021/01/10 11:24:10;;;;;;;111.63;33.92;;;;;;;;;;5049693;28;20024;-65
2021/01/10 11:26:36;;;;;;;99.40;32.10;;;;;;;;;;5049712;28;20043;-65
2021/01/10 11:29:04;;;;;;;99.18;33.05;;;;;;;;;;5049465;28;20128;-64
2021/01/10 11:31:29;;;;;;;110.70;36.63;;;;;;;;;;5048903;28;20166;-65
2021/01/10 11:33:54;;;;;;;118.15;37.25;;;;;;;;;;5048984;28;20111;-64
2021/01/10 11:36:20;;;;;;;96.60;34.83;;;;;;;;;;5053956;28;20389;-64
2021/01/10 11:38:49;;;;;;;92.30;33.85;;;;;;;;;;5053126;28;20104;-64
2021/01/10 11:41:14;;;;;;;120.95;37.85;;;;;;;;;;5048428;28;20017;-65
2021/01/10 11:43:40;;;;;;;109.68;37.17;;;;;;;;;;5049507;28;20032;-64
2021/01/10 11:46:06;;;;;;;87.07;27.55;;;;;;;;;;5046256;28;20386;-64
2021/01/10 11:48:31;;;;;;;106.93;32.92;;;;;;;;;;5049684;28;20033;-65
2021/01/10 11:50:57;;;;;;;98.90;35.65;;;;;;;;;;5052542;28;20033;-65
2021/01/10 11:53:22;;;;;;;106.30;36.35;;;;;;;;;;5050125;28;20442;-65
2021/01/10 11:55:47;;;;;;;108.97;35.88;;;;;;;;;;5049325;28;20083;-65
2021/01/10 11:58:12;;;;;;;98.80;32.20;;;;;;;;;;5050683;28;20072;-65
2021/01/10 12:00:38;;;;;;;91.72;31.77;;;;;;;;;;5050243;28;20056;-64
2021/01/10 12:03:03;;;;;;;91.72;29.80;;;;;;;;;;5050770;28;20399;-65
2021/01/10 12:05:28;;;;;;;101.20;33.42;;;;;;;;;;5049086;28;20534;-65
2021/01/10 12:07:54;;;;;;;93.50;33.88;;;;;;;;;;5050171;28;20025;-64
2021/01/10 12:10:19;;;;;;;98.97;33.60;;;;;;;;;;5050402;28;20029;-64
2021/01/10 12:12:44;;;;;;;102.95;39.58;;;;;;;;;;5072766;22;20023;-68
2021/01/10 12:15:09;;;;;;;91.43;31.77;;;;;;;;;;5036035;28;20044;-69
2021/01/10 12:17:35;;;;;;;81.35;28.55;;;;;;;;;;5038534;28;20025;-69
2021/01/10 12:20:00;;;;;;;75.60;24.05;;;;;;;;;;5036870;28;20017;-68
2021/01/10 12:22:25;;;;;;;58.47;19.80;;;;;;;;;;5036572;28;20068;-68
2021/01/10 12:24:50;;;;;;;86.78;30.00;;;;;;;;;;5044225;28;20384;-68
2021/01/10 12:27:15;;;;;;;72.50;24.65;;;;;;;;;;5030471;28;20021;-68
2021/01/10 12:29:40;;;;;;;61.40;21.88;;;;;;;;;;5030213;28;20469;-68
2021/01/10 12:32:06;;;;;;;107.28;35.65;;;;;;;;;;5041902;28;20021;-68
2021/01/10 12:34:31;;;;;;;85.95;25.50;;;;;;;;;;5034308;28;20068;-68
2021/01/10 12:36:58;;;;;;;89.20;34.55;;;;;;;;;;5035903;28;20074;-68
2021/01/10 12:39:23;;;;;;;92.50;31.98;;;;;;;;;;5036145;28;20017;-68
2021/01/10 12:41:48;;;;;;;94.95;37.25;;;;;;;;;;5040397;28;20052;-68
2021/01/10 12:44:13;;;;;;;97.72;35.55;;;;;;;;;;5030153;28;20021;-68
2021/01/10 12:46:38;;;;;;;88.70;32.37;;;;;;;;;;5025031;28;20029;-68
2021/01/10 12:49:04;;;;;;;72.45;22.60;;;;;;;;;;5035099;28;20844;-68
2021/01/10 12:51:39;;;;;;;67.78;24.38;;;;;;;;;;5034058;28;20108;-68
2021/01/10 12:54:05;;;;;;;81.78;29.90;;;;;;;;;;5028886;28;20096;-68
2021/01/10 12:56:30;;;;;;;82.80;29.33;;;;;;;;;;5028040;28;20112;-68
2021/01/10 12:58:55;;;;;;;82.80;31.77;;;;;;;;;;5035676;28;20017;-69
2021/01/10 13:01:20;;;;;;;76.28;28.77;;;;;;;;;;5029083;28;20728;-69
2021/01/10 13:03:45;;;;;;;84.10;32.57;;;;;;;;;;5037694;28;20022;-69
2021/01/10 13:06:10;;;;;;;78.20;30.55;;;;;;;;;;5037757;28;20614;-69
2021/01/10 13:08:36;;;;;;;73.70;28.90;;;;;;;;;;5028009;28;20018;-68
2021/01/10 13:11:01;;;;;;;81.30;30.48;;;;;;;;;;5021826;28;20196;-68
2021/01/10 13:13:27;;;;;;;71.22;28.40;;;;;;;;;;5019330;28;20025;-68
2021/01/10 13:15:52;;;;;;;81.45;28.65;;;;;;;;;;5022753;28;20374;-69
2021/01/10 13:18:17;;;;;;;81.10;31.02;;;;;;;;;;5026437;28;20020;-69
2021/01/10 13:20:42;;;;;;;70.33;29.27;;;;;;;;;;5023801;28;20017;-68
2021/01/10 13:23:07;;;;;;;52.55;17.33;;;;;;;;;;5024642;28;20673;-69
2021/01/10 13:25:33;;;;;;;69.80;28.23;;;;;;;;;;5027823;28;20584;-68
2021/01/10 13:27:58;;;;;;;67.05;28.42;;;;;;;;;;5026539;28;20268;-69
2021/01/10 13:30:23;;;;;;;70.82;26.85;;;;;;;;;;5020461;28;20030;-68
2021/01/10 13:32:48;;;;;;;72.97;25.00;;;;;;;;;;5019705;28;20097;-68
2021/01/10 13:35:13;;;;;;;20.52;9.23;;;;;;;;;;5025200;28;20065;-68
2021/01/10 13:37:40;;;;;;;65.60;21.70;;;;;;;;;;5026733;28;20397;-68
2021/01/10 13:40:06;;;;;;;46.03;18.48;;;;;;;;;;5023555;28;20091;-68
2021/01/10 13:42:31;;;;;;;71.32;29.17;;;;;;;;;;5019483;28;20025;-68
2021/01/10 13:44:56;;;;;;;50.72;20.33;;;;;;;;;;5022039;28;20022;-68
2021/01/10 13:47:21;;;;;;;73.03;25.48;;;;;;;;;;5030719;28;20082;-68
2021/01/10 13:49:46;;;;;;;63.35;22.10;;;;;;;;;;5033300;28;20027;-68
2021/01/10 13:52:14;;;;;;;57.53;20.47;;;;;;;;;;5042235;28;20025;-68
2021/01/10 13:54:39;;;;;;;57.58;22.83;;;;;;;;;;5031661;28;20284;-68
2021/01/10 13:57:04;;;;;;;59.10;20.52;;;;;;;;;;5035257;28;20010;-68
2021/01/10 13:59:30;;;;;;;47.13;17.20;;;;;;;;;;5037203;28;20452;-69
2021/01/10 14:01:55;;;;;;;68.97;27.23;;;;;;;;;;5032931;28;20021;-67
2021/01/10 14:04:21;;;;;;;78.63;28.77;;;;;;;;;;5036985;28;20040;-68
2021/01/10 14:06:46;;;;;;;68.60;23.58;;;;;;;;;;5033187;28;20112;-67